Time;durP1;ratioP1;P1;durP2;ratioP2;P2;SDS_P1;SDS_P2;PMS_P1;PMS_P2;Temp;Humidity;BMP_temperature;BMP_pressure;BME280_temperature;BME280_humidity;BME280_pressure;Samples;Min_cycle;Max_cycle;Signal;HPM_P1;HPM_P2
2022/05/30 00:01:18;;;;;;;11.08;9.83;;;;;;;8.89;84.18;99180.93;1736343;82;21058;-60
2022/05/30 00:03:45;;;;;;;;;;;;;;;8.86;84.24;99185.45;1740770;81;21073;-60
2022/05/30 00:06:19;;;;;;;16.50;13.18;;;;;;;8.82;84.29;99178.69;1760807;81;26440;-60
2022/05/30 00:08:46;;;;;;;10.98;9.85;;;;;;;8.80;84.41;99183.16;1727536;81;21373;-60
2022/05/30 00:11:16;;;;;;;11.05;9.98;;;;;;;8.78;84.40;99183.67;1752210;80;21020;-60
2022/05/30 00:13:44;;;;;;;15.55;13.90;;;;;;;8.72;84.46;99184.35;1748747;80;21060;-60
2022/05/30 00:16:12;;;;;;;;;;;;;;;8.70;84.55;99183.58;1733120;82;21046;-60
2022/05/30 00:18:40;;;;;;;12.68;11.38;;;;;;;8.73;84.64;99180.82;1734542;82;20204;-60
2022/05/30 00:21:07;;;;;;;18.05;13.98;;;;;;;8.74;84.60;99182.53;1733711;82;22284;-60
2022/05/30 00:23:34;;;;;;;15.00;12.90;;;;;;;8.74;84.55;99179.92;1760313;79;21109;-60
2022/05/30 00:26:06;;;;;;;13.15;11.75;;;;;;;8.70;84.55;99175.77;1733047;82;20915;-60
2022/05/30 00:28:34;;;;;;;14.75;13.18;;;;;;;8.67;84.49;99175.92;1755507;80;21044;-60
2022/05/30 00:31:01;;;;;;;15.28;13.80;;;;;;;8.64;84.59;99182.58;1751810;81;20966;-60
2022/05/30 00:33:28;;;;;;;12.85;11.55;;;;;;;8.65;84.75;99181.64;1750439;80;21426;-60
2022/05/30 00:35:54;;;;;;;15.58;13.90;;;;;;;8.69;84.84;99181.91;1733924;82;20994;-60
2022/05/30 00:38:21;;;;;;;13.00;11.68;;;;;;;8.72;84.93;99185.66;1731415;81;21500;-61
2022/05/30 00:40:48;;;;;;;13.90;12.57;;;;;;;8.78;85.04;99191.48;1735148;82;21043;-60
2022/05/30 00:43:32;;;;;;;13.07;11.77;;;;;;;8.82;85.08;99183.90;1739676;81;21495;-60
2022/05/30 00:46:02;;;;;;;17.40;15.60;;;;;;;8.86;85.05;99185.45;1723658;81;21582;-60
2022/05/30 00:48:39;;;;;;;17.05;15.35;;;;;;;8.86;85.17;99179.78;1755188;81;21465;-60
2022/05/30 00:51:11;;;;;;;16.62;14.90;;;;;;;8.91;85.25;99180.88;1748096;80;20998;-61
2022/05/30 00:53:40;;;;;;;12.95;11.57;;;;;;;9.02;85.43;99182.48;1751532;80;20956;-60
2022/05/30 00:56:09;;;;;;;15.98;14.35;;;;;;;9.10;85.44;99185.55;1759021;80;21535;-61
2022/05/30 00:58:41;;;;;;;13.43;12.13;;;;;;;9.13;85.46;99178.89;1764543;79;21919;-60
2022/05/30 01:01:08;;;;;;;17.23;15.53;;;;;;;9.18;85.50;99172.96;1750878;81;21029;-62
2022/05/30 01:06:31;;;;;;;16.73;14.87;;;;;;;9.25;85.37;99162.26;1752789;81;21527;-61
2022/05/30 01:08:59;;;;;;;;;;;;;;;9.27;85.46;99163.00;1766695;80;20985;-61
2022/05/30 01:11:26;;;;;;;13.45;12.15;;;;;;;9.31;85.56;99161.47;1753893;79;21187;-62
2022/05/30 01:13:52;;;;;;;15.60;13.30;;;;;;;9.34;85.55;99163.08;1728966;81;21096;-61
2022/05/30 01:16:20;;;;;;;12.95;11.68;;;;;;;9.37;85.60;99162.92;1751951;81;21092;-62
2022/05/30 01:18:54;;;;;;;13.58;12.35;;;;;;;9.40;85.57;99164.06;1751440;81;21061;-61
2022/05/30 01:21:29;;;;;;;13.38;12.10;;;;;;;9.40;85.47;99167.98;1749495;81;21049;-61
2022/05/30 01:24:24;;;;;;;12.78;11.60;;;;;;;9.36;85.39;99166.46;1746782;81;21926;-61
2022/05/30 01:27:17;;;;;;;13.88;12.58;;;;;;;9.31;85.40;99163.24;1744359;80;21071;-60
2022/05/30 01:29:49;;;;;;;21.02;15.48;;;;;;;9.27;85.44;99163.00;1760947;80;21068;-61
2022/05/30 01:32:20;;;;;;;13.18;11.88;;;;;;;9.25;85.52;99160.95;1752408;80;21042;-61
2022/05/30 01:34:47;;;;;;;16.95;14.18;;;;;;;9.24;85.61;99162.69;1756762;80;21017;-61
2022/05/30 01:37:14;;;;;;;11.63;10.53;;;;;;;9.22;85.62;99168.93;1743950;81;21076;-61
2022/05/30 01:39:41;;;;;;;13.35;11.90;;;;;;;9.19;85.68;99170.76;1742168;81;21606;-61
2022/05/30 01:42:08;;;;;;;12.35;10.88;;;;;;;9.19;85.63;99169.92;1758171;80;20922;-60
2022/05/30 01:44:36;;;;;;;19.57;14.20;;;;;;;9.18;85.70;99161.23;1759862;80;22257;-60
2022/05/30 01:47:03;;;;;;;25.02;17.98;;;;;;;9.19;85.72;99162.95;1745561;80;21033;-61
2022/05/30 01:49:29;;;;;;;;;;;;;;;9.21;85.80;99167.22;1753060;80;21220;-60
2022/05/30 01:51:57;;;;;;;33.48;22.32;;;;;;;9.21;85.95;99169.83;1752077;80;20607;-61
2022/05/30 01:54:24;;;;;;;25.35;18.37;;;;;;;9.18;85.91;99160.41;1727537;81;21016;-61
2022/05/30 01:56:51;;;;;;;65.83;23.57;;;;;;;9.19;86.05;99161.64;1731570;81;20986;-60
2022/05/30 01:59:17;;;;;;;45.60;20.68;;;;;;;9.19;86.11;99155.13;1760494;80;20988;-60
2022/05/30 02:01:45;;;;;;;32.98;19.77;;;;;;;9.22;86.20;99159.34;1748146;80;21171;-60
2022/05/30 02:04:14;;;;;;;40.43;24.63;;;;;;;9.23;86.23;99149.30;1754339;80;21031;-61
2022/05/30 02:06:41;;;;;;;37.98;18.73;;;;;;;9.24;86.25;99147.53;1753253;80;20914;-60
2022/05/30 02:09:08;;;;;;;31.35;18.87;;;;;;;9.25;86.25;99147.93;1753533;80;21035;-60
2022/05/30 02:11:35;;;;;;;39.45;22.27;;;;;;;9.22;86.23;99146.78;1744863;80;27200;-60
2022/05/30 02:14:03;;;;;;;29.32;18.42;;;;;;;9.22;86.40;99140.28;1753330;80;21880;-61
2022/05/30 02:19:18;;;;;;;29.15;19.67;;;;;;;9.21;86.45;99141.17;1749965;80;21041;-61
2022/05/30 02:21:45;;;;;;;27.85;18.40;;;;;;;9.18;86.51;99140.41;1735826;81;21065;-60
2022/05/30 02:24:13;;;;;;;26.60;17.50;;;;;;;9.18;86.52;99137.80;1728035;80;21069;-61
2022/05/30 02:26:39;;;;;;;;;;;;;;;9.16;86.58;99142.27;1758374;80;21310;-61
2022/05/30 02:29:06;;;;;;;25.30;17.33;;;;;;;9.17;86.77;99128.31;1747903;80;20086;-61
2022/05/30 02:31:33;;;;;;;24.92;17.07;;;;;;;9.17;86.75;99137.89;1721886;81;26609;-61
2022/05/30 02:36:45;;;;;;;28.30;17.07;;;;;;;9.21;86.82;99138.57;1754039;80;21584;-61
2022/05/30 02:39:19;;;;;;;34.67;20.70;;;;;;;9.22;86.88;99144.19;1751227;80;21377;-60
2022/05/30 02:41:46;;;;;;;28.07;17.35;;;;;;;9.24;86.92;99141.02;1749055;80;21608;-60
2022/05/30 02:44:19;;;;;;;;;;;;;;;9.27;86.96;99135.65;1731550;82;20957;-60
2022/05/30 02:46:50;;;;;;;30.40;19.42;;;;;;;9.29;86.98;99141.63;1763642;80;20320;-61
2022/05/30 02:49:18;;;;;;;35.65;20.35;;;;;;;9.29;86.96;99136.42;1734671;81;21124;-61
2022/05/30 02:51:45;;;;;;;55.40;23.45;;;;;;;9.30;87.03;99138.96;1746954;81;21453;-60
2022/05/30 02:54:13;;;;;;;;;;;;;;;9.32;87.16;99141.47;1752095;81;22759;-61
2022/05/30 02:56:40;;;;;;;;;;;;;;;9.35;87.26;99136.97;1745138;81;20275;-61
2022/05/30 02:59:07;;;;;;;33.48;20.40;;;;;;;9.35;87.16;99137.41;1748021;81;20101;-61
2022/05/30 03:01:35;;;;;;;30.52;20.35;;;;;;;9.32;87.15;99131.05;1747275;79;21163;-61
2022/05/30 03:04:07;;;;;;;40.52;25.05;;;;;;;9.33;87.26;99133.59;1751959;81;22093;-61
2022/05/30 03:06:35;;;;;;;33.80;21.30;;;;;;;9.41;87.38;99133.20;1750666;81;21089;-61
2022/05/30 03:09:03;;;;;;;52.00;26.12;;;;;;;9.48;87.53;99126.73;1753290;81;21079;-61
2022/05/30 03:11:29;;;;;;;30.10;20.52;;;;;;;9.54;87.59;99129.02;1753141;81;21660;-60
2022/05/30 03:13:56;;;;;;;33.00;21.33;;;;;;;9.62;87.59;99126.01;1762673;80;20989;-60
2022/05/30 03:16:23;;;;;;;31.17;20.40;;;;;;;9.68;87.52;99128.28;1736920;81;21405;-60
2022/05/30 03:18:50;;;;;;;25.90;18.92;;;;;;;9.71;87.49;99128.59;1745764;81;21591;-61
2022/05/30 03:21:17;;;;;;;29.20;19.30;;;;;;;9.69;87.28;99127.38;1739796;81;21041;-62
2022/05/30 03:23:43;;;;;;;25.08;19.05;;;;;;;9.72;87.42;99121.13;1735524;80;21056;-61
2022/05/30 03:26:11;;;;;;;24.55;17.32;;;;;;;9.76;87.56;99127.42;1742427;81;21023;-60
2022/05/30 03:28:39;;;;;;;26.57;17.87;;;;;;;9.84;87.62;99127.02;1737896;80;21379;-61
2022/05/30 03:31:09;;;;;;;;;;;;;;;9.91;87.54;99121.83;1738663;81;21018;-61
2022/05/30 03:33:38;;;;;;;38.50;17.48;;;;;;;9.94;87.40;99123.00;1735106;81;20228;-61
2022/05/30 03:36:15;;;;;;;45.15;17.57;;;;;;;9.96;87.41;99125.04;1736185;80;21045;-61
2022/05/30 03:38:42;;;;;;;;;;;;;;;10.01;87.45;99122.20;1757107;80;20988;-61
2022/05/30 03:41:09;;;;;;;23.57;17.05;;;;;;;10.05;87.53;99121.95;1754213;80;24986;-60
2022/05/30 03:43:36;;;;;;;31.17;18.87;;;;;;;10.06;87.49;99113.19;1755606;78;21060;-61
2022/05/30 03:46:03;;;;;;;26.63;18.53;;;;;;;10.15;87.52;99116.22;1752736;80;21696;-61
2022/05/30 03:48:30;;;;;;;21.27;17.17;;;;;;;10.20;87.64;99117.65;1747000;80;25550;-61
2022/05/30 03:50:57;;;;;;;20.17;15.93;;;;;;;10.29;87.58;99114.55;1741093;81;21105;-61
2022/05/30 03:53:24;;;;;;;16.25;13.78;;;;;;;10.32;87.33;99112.70;1743281;81;22471;-61
2022/05/30 03:55:51;;;;;;;18.17;13.48;;;;;;;10.36;87.34;99118.95;1745917;81;21009;-60
2022/05/30 03:58:17;;;;;;;15.57;12.70;;;;;;;10.38;87.34;99114.97;1751926;81;21001;-61
2022/05/30 04:00:45;;;;;;;14.23;12.63;;;;;;;10.40;87.32;99121.78;1745149;81;20977;-60
2022/05/30 04:03:12;;;;;;;15.50;12.37;;;;;;;10.41;87.31;99114.80;1745831;80;21199;-61
2022/05/30 04:05:39;;;;;;;14.93;12.45;;;;;;;10.43;87.33;99120.31;1743492;80;21594;-61
2022/05/30 04:08:07;;;;;;;14.18;11.03;;;;;;;10.46;87.44;99116.22;1735950;81;20954;-60
2022/05/30 04:11:56;;;;;;;12.00;10.80;;;;;;;10.51;87.36;99116.80;1812965;77;22703;-60
2022/05/30 04:14:23;;;;;;;11.53;10.33;;;;;;;10.43;87.16;99119.00;1811038;78;20946;-60
2022/05/30 04:16:49;;;;;;;11.63;9.87;;;;;;;10.36;87.15;99125.48;1817849;78;22251;-60
2022/05/30 04:19:16;;;;;;;11.43;9.00;;;;;;;10.35;87.33;99131.64;1820574;78;20982;-60
2022/05/30 04:21:43;;;;;;;9.13;7.92;;;;;;;10.37;87.40;99127.18;1809562;78;20977;-60
2022/05/30 04:24:10;;;;;;;9.13;7.50;;;;;;;10.39;87.32;99136.21;1812994;78;21051;-60
2022/05/30 04:26:37;;;;;;;12.73;8.00;;;;;;;10.36;87.17;99130.70;1808987;78;21611;-60
2022/05/30 04:29:05;;;;;;;9.75;8.18;;;;;;;10.39;87.41;99140.13;1822865;78;21654;-60
2022/05/30 04:31:31;;;;;;;10.08;8.50;;;;;;;10.41;87.37;99133.06;1809700;78;26643;-61
2022/05/30 04:33:58;;;;;;;11.93;9.67;;;;;;;10.42;87.36;99139.52;1814738;78;21643;-61
2022/05/30 04:36:25;;;;;;;11.80;9.00;;;;;;;10.42;87.43;99134.73;1813516;78;21052;-60
2022/05/30 04:38:51;;;;;;;9.80;8.80;;;;;;;10.43;87.37;99134.66;1820556;77;21123;-60
2022/05/30 04:41:18;;;;;;;9.83;8.83;;;;;;;10.40;87.31;99129.62;1823312;77;21963;-61
2022/05/30 04:43:44;;;;;;;10.57;9.47;;;;;;;10.36;87.53;99133.31;1823369;78;21130;-60
2022/05/30 04:46:19;;;;;;;10.33;9.10;;;;;;;10.35;87.62;99134.72;1813288;78;22107;-61
2022/05/30 04:48:47;;;;;;;11.08;9.93;;;;;;;10.36;87.76;99135.92;1816428;77;21009;-61
2022/05/30 04:51:14;;;;;;;13.28;10.55;;;;;;;10.41;88.00;99132.59;1823777;77;20944;-61
2022/05/30 04:53:41;;;;;;;12.73;10.75;;;;;;;10.47;88.01;99132.28;1820997;77;21447;-61
2022/05/30 04:56:08;;;;;;;13.22;11.35;;;;;;;10.53;87.65;99134.53;1818925;77;20957;-62
2022/05/30 04:58:36;;;;;;;13.05;10.98;;;;;;;10.52;87.82;99128.91;1813036;77;24512;-61
2022/05/30 05:01:08;;;;;;;11.95;10.43;;;;;;;10.66;88.02;99136.44;1814903;77;20987;-60
2022/05/30 05:03:37;;;;;;;12.10;9.83;;;;;;;10.66;88.02;99136.44;1768615;78;21112;-60
2022/05/30 05:06:15;;;;;;;10.18;9.08;;;;;;;10.83;87.96;99136.31;1769980;80;21110;-60
2022/05/30 05:08:59;;;;;;;;;;;;;;;10.95;88.22;99134.75;1774705;80;21021;-59
2022/05/30 05:11:29;;;;;;;11.65;10.45;;;;;;;11.05;88.18;99135.07;1743082;80;20185;-60
2022/05/30 05:13:57;;;;;;;12.37;10.82;;;;;;;11.16;88.10;99139.20;1748345;81;21096;-62
2022/05/30 05:16:28;;;;;;;11.33;10.13;;;;;;;11.22;87.94;99133.61;1766774;80;21555;-61
2022/05/30 05:18:55;;;;;;;14.05;11.03;;;;;;;11.27;87.88;99134.18;1763368;80;21705;-60
2022/05/30 05:21:29;;;;;;;11.25;9.95;;;;;;;11.34;87.23;99134.20;1753599;80;21033;-61
2022/05/30 05:23:58;;;;;;;10.40;9.30;;;;;;;11.33;87.19;99135.11;1768933;80;21653;-63
2022/05/30 05:26:26;;;;;;;9.88;8.88;;;;;;;11.30;87.13;99141.84;1769157;80;21587;-61
2022/05/30 05:28:53;;;;;;;9.85;8.85;;;;;;;11.30;87.13;99141.84;1767022;80;21021;-62
2022/05/30 05:31:34;;;;;;;10.03;9.03;;;;;;;11.15;87.34;99106.17;1755682;80;24422;-61
2022/05/30 05:34:05;;;;;;;10.25;9.08;;;;;;;11.39;87.41;99141.28;1767597;80;21017;-61
2022/05/30 05:36:35;;;;;;;10.82;9.75;;;;;;;11.45;87.37;99144.47;1765899;80;21104;-61
2022/05/30 05:39:03;;;;;;;10.70;9.60;;;;;;;11.51;87.51;99145.39;1751260;81;21113;-62
2022/05/30 05:41:30;;;;;;;12.07;9.43;;;;;;;11.58;87.42;99141.49;1747391;81;21669;-61
2022/05/30 05:43:57;;;;;;;9.03;8.00;;;;;;;11.61;87.23;99143.92;1767934;80;22175;-62
2022/05/30 05:46:28;;;;;;;10.32;8.60;;;;;;;11.59;87.08;99140.08;1752094;80;21756;-61
2022/05/30 05:48:56;;;;;;;9.60;8.20;;;;;;;11.69;87.18;99142.98;1743342;80;20994;-61
2022/05/30 05:51:25;;;;;;;7.55;6.85;;;;;;;11.69;87.18;99142.98;1748348;80;21096;-61
2022/05/30 05:53:53;;;;;;;7.35;6.60;;;;;;;11.67;87.33;99129.16;1772102;80;21060;-61
2022/05/30 05:58:01;;;;;;;10.58;7.42;;;;;;;11.88;87.17;99136.67;1875114;74;23365;-61
2022/05/30 06:00:28;;;;;;;;;;;;;;;11.92;87.43;99139.45;1807635;77;20988;-61
2022/05/30 06:02:57;;;;;;;8.10;6.85;;;;;;;11.99;87.28;99136.84;1766642;78;21770;-60
2022/05/30 06:05:30;;;;;;;7.95;7.15;;;;;;;12.07;86.73;99139.80;1774210;78;21020;-60
2022/05/30 06:08:00;;;;;;;10.50;7.75;;;;;;;12.07;86.73;99139.80;1808393;77;21630;-61
2022/05/30 06:11:39;;;;;;;6.75;6.12;;;;;;;12.17;86.77;99142.69;1791752;77;22690;-60
2022/05/30 06:14:08;;;;;;;6.72;6.05;;;;;;;12.10;86.72;99144.86;1751120;80;21670;-60
2022/05/30 06:16:39;;;;;;;6.87;6.08;;;;;;;12.09;86.69;99144.47;1744627;80;21874;-61
2022/05/30 06:19:09;;;;;;;6.03;5.42;;;;;;;12.08;86.68;99140.19;1734524;80;21041;-61
2022/05/30 06:21:36;;;;;;;6.25;5.75;;;;;;;12.09;86.70;99145.30;1739417;80;21064;-60
2022/05/30 06:24:05;;;;;;;7.25;6.55;;;;;;;12.12;86.78;99138.20;1746070;80;21142;-61
2022/05/30 06:26:39;;;;;;;6.30;5.70;;;;;;;12.21;86.85;99136.31;1741109;80;21044;-60
2022/05/30 06:29:06;;;;;;;5.80;5.20;;;;;;;12.28;86.52;99138.92;1733066;80;21295;-60
2022/05/30 06:31:37;;;;;;;6.35;5.75;;;;;;;12.30;86.27;99140.51;1739309;80;21104;-61
2022/05/30 06:34:08;;;;;;;8.18;5.83;;;;;;;12.31;85.80;99140.87;1752146;79;21033;-61
2022/05/30 06:36:39;;;;;;;6.70;5.37;;;;;;;12.37;86.11;99142.25;1740140;80;21080;-61
2022/05/30 06:39:06;;;;;;;6.25;5.65;;;;;;;12.37;85.64;99137.49;1737608;80;21529;-60
2022/05/30 06:41:40;;;;;;;6.45;5.47;;;;;;;12.41;85.93;99144.23;1737839;80;21439;-60
2022/05/30 06:44:10;;;;;;;5.12;4.60;;;;;;;12.49;85.91;99143.24;1747281;79;21069;-61
2022/05/30 06:46:39;;;;;;;5.17;4.28;;;;;;;12.54;86.02;99139.86;1736516;80;21668;-62
2022/05/30 06:49:09;;;;;;;5.72;4.47;;;;;;;12.56;85.86;99141.92;1733128;80;21539;-61
2022/05/30 06:51:37;;;;;;;5.28;4.83;;;;;;;12.62;85.89;99138.91;1742194;80;21096;-61
2022/05/30 06:54:12;;;;;;;5.45;4.87;;;;;;;12.68;85.78;99133.26;1741827;80;21091;-61
2022/05/30 06:59:29;;;;;;;7.47;4.08;;;;;;;12.88;85.80;99127.18;1737144;80;20974;-62
2022/05/30 07:02:00;;;;;;;4.95;4.40;;;;;;;13.03;85.93;99132.73;1743872;80;20962;-64
2022/05/30 07:04:34;;;;;;;6.35;4.95;;;;;;;13.17;85.58;99127.40;1724649;80;21076;-63
2022/05/30 07:07:07;;;;;;;5.47;4.92;;;;;;;13.29;85.61;99124.92;1746688;80;21072;-62
2022/05/30 07:09:36;;;;;;;6.80;4.72;;;;;;;13.47;85.62;99124.98;1745004;80;21263;-62
2022/05/30 07:12:22;;;;;;;6.37;5.20;;;;;;;13.68;85.60;99125.75;1737867;80;21020;-62
2022/05/30 07:17:12;;;;;;;5.35;4.85;;;;;;;13.85;84.58;99122.78;1833740;76;22700;-61
2022/05/30 07:19:40;;;;;;;9.65;5.35;;;;;;;13.84;84.43;99126.37;1807948;77;21024;-61
2022/05/30 07:22:07;;;;;;;8.95;4.75;;;;;;;13.83;84.14;99120.73;1810902;77;21606;-61
2022/05/30 07:24:34;;;;;;;4.50;4.10;;;;;;;13.92;84.19;99124.05;1806626;78;21652;-61
2022/05/30 07:27:01;;;;;;;6.28;4.70;;;;;;;14.14;84.51;99122.50;1809751;77;21079;-61
2022/05/30 07:29:28;;;;;;;4.90;4.33;;;;;;;14.53;84.69;99122.27;1812851;78;21677;-61
2022/05/30 07:32:58;;;;;;;5.40;3.85;;;;;;;14.72;83.06;99113.88;1858893;75;23496;-61
2022/05/30 07:36:32;;;;;;;7.40;4.33;;;;;;;14.84;82.26;99118.70;1833805;76;23245;-61
2022/05/30 07:38:59;;;;;;;4.62;3.98;;;;;;;14.58;81.74;99115.86;1814029;78;21106;-59
2022/05/30 07:41:28;;;;;;;5.60;4.25;;;;;;;14.54;81.44;99120.02;1821542;78;21461;-61
2022/05/30 07:43:55;;;;;;;5.62;4.55;;;;;;;14.46;81.35;99119.71;1811266;78;20990;-60
2022/05/30 07:46:22;;;;;;;7.87;5.05;;;;;;;14.61;82.44;99115.63;1817963;78;21484;-60
2022/05/30 07:50:08;;;;;;;6.17;4.42;;;;;;;15.11;82.65;99117.59;1855018;75;22315;-61
2022/05/30 07:52:35;;;;;;;5.37;4.25;;;;;;;15.36;82.77;99113.45;1822491;77;21634;-61
2022/05/30 07:55:03;;;;;;;8.68;4.78;;;;;;;15.67;82.41;99115.03;1821415;77;21074;-64
2022/05/30 08:00:16;;;;;;;7.15;4.22;;;;;;;16.08;82.30;99109.66;1818697;78;20981;-62
2022/05/30 08:02:43;;;;;;;9.73;4.85;;;;;;;16.15;81.24;99118.72;1816611;78;20953;-61
2022/05/30 08:05:12;;;;;;;4.62;4.03;;;;;;;16.23;81.13;99113.69;1817299;78;20989;-61
2022/05/30 08:07:39;;;;;;;10.72;4.17;;;;;;;16.47;81.42;99119.27;1820213;78;22366;-62
2022/05/30 08:10:08;;;;;;;4.62;3.80;;;;;;;16.46;80.33;99112.30;1821226;77;20895;-61
2022/05/30 08:12:34;;;;;;;4.28;3.02;;;;;;;16.42;80.41;99106.94;1817496;78;20977;-61
2022/05/30 08:15:01;;;;;;;6.05;2.87;;;;;;;16.47;80.25;99107.41;1822093;78;21491;-62
2022/05/30 08:17:28;;;;;;;8.85;3.40;;;;;;;16.62;80.05;99110.09;1819068;78;21111;-61
2022/05/30 08:19:55;;;;;;;7.42;3.55;;;;;;;16.71;79.93;99115.09;1819975;77;21748;-61
2022/05/30 08:22:22;;;;;;;5.60;3.10;;;;;;;16.61;79.46;99116.34;1814771;78;21053;-62
2022/05/30 08:24:52;;;;;;;4.35;3.17;;;;;;;16.52;78.42;99113.11;1822176;77;20938;-61
2022/05/30 08:27:19;;;;;;;4.55;3.15;;;;;;;16.38;78.66;99112.09;1814774;78;20895;-62
2022/05/30 08:29:46;;;;;;;5.75;3.52;;;;;;;16.48;78.87;99122.25;1819716;77;20926;-63
2022/05/30 08:32:14;;;;;;;4.65;2.87;;;;;;;16.44;78.71;99111.13;1818755;78;21629;-62
2022/05/30 08:34:42;;;;;;;3.62;2.98;;;;;;;16.40;78.69;99113.64;1818955;78;20931;-62
2022/05/30 08:37:10;;;;;;;6.35;2.90;;;;;;;16.42;78.46;99109.09;1819652;77;21041;-62
2022/05/30 08:42:29;;;;;;;4.62;3.00;;;;;;;16.38;77.98;99113.41;1821069;77;20934;-62
2022/05/30 08:44:57;;;;;;;5.70;3.45;;;;;;;16.25;77.71;99117.04;1819008;78;21506;-63
2022/05/30 08:47:51;;;;;;;7.53;3.12;;;;;;;16.27;77.76;99117.76;1817281;77;21000;-63
2022/05/30 08:50:52;;;;;;;3.55;2.30;;;;;;;16.42;78.00;99114.84;1819878;78;20969;-61
2022/05/30 08:53:27;;;;;;;4.35;2.40;;;;;;;16.73;77.55;99110.05;1819602;78;20977;-62
2022/05/30 08:56:07;;;;;;;4.92;2.80;;;;;;;16.92;76.99;99110.72;1819912;78;21116;-62
2022/05/30 08:58:45;;;;;;;3.47;2.50;;;;;;;16.89;75.15;99111.46;1816066;78;21016;-63
2022/05/30 09:01:23;;;;;;;6.35;2.95;;;;;;;16.74;75.30;99110.39;1818701;78;21543;-63
2022/05/30 09:04:09;;;;;;;3.87;2.58;;;;;;;16.37;73.95;99107.79;1817590;78;21040;-62
2022/05/30 09:06:47;;;;;;;2.47;2.20;;;;;;;16.04;73.88;99113.48;1818973;77;20981;-61
2022/05/30 09:09:31;;;;;;;3.58;2.30;;;;;;;15.95;74.57;99108.95;1817010;77;20933;-61
2022/05/30 09:12:06;;;;;;;5.17;2.35;;;;;;;16.07;74.71;99102.70;1812263;78;21989;-61
2022/05/30 09:14:47;;;;;;;7.05;2.85;;;;;;;16.24;74.40;99102.17;1819408;78;21541;-61
2022/05/30 09:17:22;;;;;;;3.12;2.15;;;;;;;16.29;75.00;99103.13;1820761;77;21060;-60
2022/05/30 09:19:49;;;;;;;3.27;2.20;;;;;;;16.44;73.66;99097.09;1821192;77;20902;-60
2022/05/30 09:22:17;;;;;;;5.10;2.20;;;;;;;16.47;73.29;99099.50;1818478;78;21080;-61
2022/05/30 09:25:55;;;;;;;5.92;2.30;;;;;;;16.63;73.90;99099.89;1818554;78;21074;-63
2022/05/30 09:27:13;;;;;;;3.55;2.30;;;;;;;16.70;73.34;99101.56;1817280;77;21096;-61
2022/05/30 09:29:55;;;;;;;3.35;2.12;;;;;;;16.63;73.20;99097.26;1818880;77;21040;-60
2022/05/30 09:33:14;;;;;;;3.52;2.30;;;;;;;16.76;73.41;99094.00;1819803;77;21174;-59
2022/05/30 09:35:43;;;;;;;2.95;2.17;;;;;;;17.08;74.20;99089.16;1769676;80;21041;-60
2022/05/30 09:38:20;;;;;;;2.75;2.05;;;;;;;17.66;74.47;99089.45;1771290;80;21075;-61
2022/05/30 09:40:53;;;;;;;9.35;2.17;;;;;;;17.84;73.77;99091.03;1771334;79;20943;-60
2022/05/30 09:43:51;;;;;;;2.67;1.72;;;;;;;18.10;73.57;99083.44;1769423;79;21019;-61
2022/05/30 09:46:39;;;;;;;2.98;2.00;;;;;;;18.38;73.66;99075.70;1774809;80;20981;-60
2022/05/30 09:49:26;;;;;;;3.33;1.70;;;;;;;18.52;72.90;99079.25;1767993;79;21104;-62
2022/05/30 09:52:04;;;;;;;5.50;2.67;;;;;;;18.54;72.56;99073.81;1757401;80;21047;-61
2022/05/30 09:54:34;;;;;;;4.47;2.77;;;;;;;18.33;72.04;99080.06;1759266;80;21577;-60
2022/05/30 09:57:20;;;;;;;3.67;2.45;;;;;;;17.62;70.28;99085.42;1755988;80;20991;-60
2022/05/30 09:59:52;;;;;;;2.77;2.30;;;;;;;16.94;69.86;99073.66;1762440;80;21116;-61
2022/05/30 10:02:27;;;;;;;5.25;2.52;;;;;;;16.29;70.39;99073.67;1764123;80;20976;-61
2022/05/30 10:05:04;;;;;;;4.67;2.40;;;;;;;15.98;70.42;99069.20;1755794;80;21084;-60
2022/05/30 10:07:33;;;;;;;3.30;2.10;;;;;;;15.84;70.03;99071.63;1759576;80;21094;-61
2022/05/30 10:10:20;;;;;;;2.98;2.27;;;;;;;15.61;69.74;99079.98;1797890;78;21061;-60
2022/05/30 10:12:58;;;;;;;3.37;2.15;;;;;;;15.45;69.39;99060.12;1812437;77;20957;-62
2022/05/30 10:15:39;;;;;;;2.62;2.05;;;;;;;15.03;69.04;99071.33;1812818;77;21148;-60
2022/05/30 10:18:17;;;;;;;4.22;1.90;;;;;;;14.80;68.96;99064.70;1818502;77;21444;-59
2022/05/30 10:21:04;;;;;;;3.55;2.00;;;;;;;14.54;69.24;99071.42;1811453;78;20944;-61
2022/05/30 10:30:05;;;;;;;9.58;2.27;;;;;;;13.72;69.40;99087.84;1815688;77;21005;-66
2022/05/30 10:33:00;;;;;;;12.75;2.60;;;;;;;12.40;70.75;99091.48;1815964;77;21102;-66
2022/05/30 10:35:47;;;;;;;3.15;2.17;;;;;;;11.52;71.87;99093.50;1816272;77;20903;-63
2022/05/30 10:38:29;;;;;;;;;;;;;;;11.11;72.03;99086.37;1819579;77;21005;-63
2022/05/30 10:41:25;;;;;;;4.20;2.80;;;;;;;10.95;73.13;99082.07;1816508;77;20115;-64
2022/05/30 10:44:15;;;;;;;3.75;2.80;;;;;;;11.05;73.47;99087.58;1812304;78;20945;-65
2022/05/30 10:47:24;;;;;;;4.37;3.60;;;;;;;11.15;74.14;99098.34;1813003;78;21043;-65
2022/05/30 10:50:11;;;;;;;6.55;4.10;;;;;;;11.27;75.42;99081.91;1818275;78;20879;-64
2022/05/30 10:52:55;;;;;;;8.50;3.60;;;;;;;11.51;75.60;99080.03;1733291;81;21064;-63
2022/05/30 10:55:36;;;;;;;4.70;3.52;;;;;;;11.79;76.26;99083.95;1733187;80;21044;-62
2022/05/30 10:58:17;;;;;;;3.47;3.17;;;;;;;11.95;76.64;99092.17;1745568;81;21101;-62
2022/05/30 11:01:07;;;;;;;4.83;3.17;;;;;;;12.06;77.04;99091.02;1737615;80;21494;-60
2022/05/30 11:03:44;;;;;;;4.28;3.10;;;;;;;12.21;76.86;99082.21;1674972;84;21093;-62
2022/05/30 11:06:30;;;;;;;4.30;3.50;;;;;;;12.36;76.76;99086.09;1684931;83;21055;-61
2022/05/30 11:09:07;;;;;;;4.70;3.45;;;;;;;12.50;77.26;99087.34;1680643;83;21205;-61
2022/05/30 11:12:08;;;;;;;3.42;3.12;;;;;;;12.57;77.70;99088.59;1678014;83;21119;-60
2022/05/30 11:14:43;;;;;;;6.20;3.40;;;;;;;12.68;78.67;99093.97;1674974;83;21180;-60
2022/05/30 11:17:27;;;;;;;4.87;3.17;;;;;;;12.89;78.24;99090.89;1668931;83;21143;-61
2022/05/30 11:20:17;;;;;;;4.10;3.37;;;;;;;13.07;78.84;99094.87;1675491;83;22432;-61
2022/05/30 11:22:51;;;;;;;3.25;2.75;;;;;;;13.28;79.17;99099.66;1678332;83;21217;-60
2022/05/30 11:25:40;;;;;;;3.33;2.98;;;;;;;13.42;79.54;99087.75;1670776;83;21576;-60
2022/05/30 11:28:38;;;;;;;4.05;3.30;;;;;;;13.67;79.58;99096.06;1637832;85;22412;-60
2022/05/30 11:31:19;;;;;;;3.92;3.00;;;;;;;13.83;80.26;99098.43;1653877;85;21136;-60
2022/05/30 11:34:17;;;;;;;9.43;2.75;;;;;;;14.05;80.45;99098.58;1648604;85;21033;-60
2022/05/30 11:37:01;;;;;;;4.95;3.10;;;;;;;14.10;81.23;99092.53;1643347;85;21223;-61
2022/05/30 11:39:51;;;;;;;3.52;3.00;;;;;;;14.21;81.31;99089.62;1628222;86;21144;-60
2022/05/30 11:42:47;;;;;;;5.33;3.05;;;;;;;14.29;81.52;99097.78;1629485;86;21540;-60
2022/05/30 11:45:34;;;;;;;3.58;2.70;;;;;;;14.26;81.37;99098.01;1606722;87;21505;-60
2022/05/30 11:48:24;;;;;;;2.98;2.12;;;;;;;14.08;81.26;99087.86;1573573;89;21102;-59
2022/05/30 11:51:04;;;;;;;3.20;2.12;;;;;;;13.86;81.37;99094.27;1591425;88;21785;-61
2022/05/30 11:53:42;;;;;;;4.75;2.17;;;;;;;13.60;81.38;99091.70;1594749;88;21151;-60
2022/05/30 11:56:42;;;;;;;2.52;2.15;;;;;;;13.37;81.47;99089.84;1597676;88;22589;-61
2022/05/30 11:59:44;;;;;;;3.45;1.67;;;;;;;13.13;82.33;99091.83;1573788;89;21759;-61
2022/05/30 12:02:19;;;;;;;2.85;2.12;;;;;;;13.19;82.61;99085.33;1568956;89;21180;-61
2022/05/30 12:05:00;;;;;;;2.15;1.95;;;;;;;13.19;82.78;99080.95;1568210;89;21140;-61
2022/05/30 12:08:00;;;;;;;2.10;1.90;;;;;;;13.24;82.73;99082.41;1597409;87;21175;-61
2022/05/30 12:11:08;;;;;;;4.35;2.50;;;;;;;13.31;82.95;99080.62;1593259;87;21419;-61
2022/05/30 12:14:12;;;;;;;4.55;1.80;;;;;;;13.38;83.42;99084.95;1580622;88;21149;-61
2022/05/30 12:17:05;;;;;;;2.52;1.90;;;;;;;13.41;83.50;99092.16;1609331;86;21066;-64
2022/05/30 12:25:41;;;;;;;3.60;2.00;;;;;;;13.34;83.98;99088.74;1680094;82;21991;-61
2022/05/30 12:28:31;;;;;;;2.80;1.80;;;;;;;13.42;84.07;99086.44;1751419;80;21030;-61
2022/05/30 12:31:04;;;;;;;2.52;1.60;;;;;;;13.56;84.42;99091.56;1732383;80;20987;-60
2022/05/30 12:33:36;;;;;;;1.95;1.75;;;;;;;13.71;84.53;99091.44;1748161;80;21027;-60
2022/05/30 12:36:17;;;;;;;2.92;1.80;;;;;;;13.89;84.67;99094.05;1746266;80;21004;-60
2022/05/30 12:39:31;;;;;;;2.52;1.98;;;;;;;14.18;84.47;99091.16;1861038;75;22806;-59